createdAt,value
2022-10-07T00:00:01.276Z,99.99
2022-10-07T00:01:01.588Z,99.99
2022-10-07T00:02:02.372Z,99.99
2022-10-07T00:03:01.681Z,99.99
2022-10-07T00:04:01.824Z,99.99
2022-10-07T00:05:01.948Z,99.99
2022-10-07T00:06:02.046Z,99.99
2022-10-07T00:07:02.235Z,99.99
2022-10-07T00:08:02.367Z,99.99
2022-10-07T00:09:02.515Z,99.99
2022-10-07T00:10:02.624Z,99.99
2022-10-07T00:11:02.803Z,99.99
2022-10-07T00:12:02.934Z,99.99
2022-10-07T00:13:03.075Z,99.99
2022-10-07T00:14:03.183Z,99.99
2022-10-07T00:15:03.362Z,99.99
2022-10-07T00:16:03.475Z,99.99
2022-10-07T00:17:03.696Z,99.99
2022-10-07T00:18:03.753Z,99.99
2022-10-07T00:19:03.861Z,99.99
2022-10-07T00:20:04.045Z,99.99
2022-10-07T00:21:04.156Z,99.99
2022-10-07T00:22:04.271Z,99.99
2022-10-07T00:23:04.393Z,99.99
2022-10-07T00:24:04.502Z,99.99
2022-10-07T00:25:04.681Z,99.99
2022-10-07T00:26:04.796Z,99.99
2022-10-07T00:27:04.911Z,99.99
2022-10-07T00:28:05.206Z,99.99
2022-10-07T00:29:05.192Z,99.99
2022-10-07T00:30:05.311Z,99.99
2022-10-07T00:31:05.458Z,99.99
2022-10-07T00:32:06.262Z,99.99
2022-10-07T00:33:05.740Z,99.99
2022-10-07T00:34:05.856Z,99.99
2022-10-07T00:35:05.951Z,99.99
2022-10-07T00:36:06.163Z,99.99
2022-10-07T00:37:06.254Z,99.99
2022-10-07T00:38:06.400Z,99.99
2022-10-07T00:39:06.513Z,99.99
2022-10-07T00:40:06.623Z,99.99
2022-10-07T00:41:06.796Z,99.99
2022-10-07T00:42:06.852Z,99.99
2022-10-07T00:43:06.986Z,99.99
2022-10-07T00:44:07.111Z,99.99
2022-10-07T00:45:07.231Z,99.99
2022-10-07T00:46:07.499Z,99.99
2022-10-07T00:47:07.534Z,99.99
2022-10-07T00:48:07.708Z,99.99
2022-10-07T00:49:07.872Z,99.99
2022-10-07T00:50:07.973Z,99.99
2022-10-07T00:51:08.106Z,99.99
2022-10-07T00:52:08.260Z,99.99
2022-10-07T00:53:08.384Z,99.99
2022-10-07T00:54:08.901Z,99.99
2022-10-07T00:55:10.105Z,99.99
2022-10-07T00:56:08.789Z,99.99
2022-10-07T00:57:08.932Z,99.99
2022-10-07T00:58:09.086Z,99.99
2022-10-07T00:59:09.212Z,99.99
2022-10-07T01:00:09.370Z,99.99
2022-10-07T01:01:09.593Z,99.99
2022-10-07T01:02:09.663Z,99.99
2022-10-07T01:03:09.748Z,99.99
2022-10-07T01:04:09.860Z,99.99
2022-10-07T01:05:09.984Z,99.99
2022-10-07T01:06:10.113Z,99.99
2022-10-07T01:07:10.241Z,99.99
2022-10-07T01:08:10.393Z,99.99
2022-10-07T01:09:10.531Z,99.99
2022-10-07T01:10:10.667Z,99.99
2022-10-07T01:11:10.800Z,99.99
2022-10-07T01:12:10.932Z,99.99
2022-10-07T01:13:11.049Z,99.99
2022-10-07T01:14:11.180Z,99.99
2022-10-07T01:15:11.307Z,99.99
2022-10-07T01:16:11.581Z,99.99
2022-10-07T01:17:11.620Z,99.99
2022-10-07T01:18:11.648Z,99.99
2022-10-07T01:19:11.780Z,99.99
2022-10-07T01:20:11.951Z,99.99
2022-10-07T01:21:12.110Z,99.99
2022-10-07T01:22:12.260Z,99.99
2022-10-07T01:23:12.385Z,99.99
2022-10-07T01:24:12.498Z,99.99
2022-10-07T01:25:12.651Z,99.99
2022-10-07T01:26:13.731Z,99.99
2022-10-07T01:27:12.917Z,99.99
2022-10-07T01:28:13.093Z,99.99
2022-10-07T01:29:13.239Z,99.99
2022-10-07T01:30:13.385Z,99.99
2022-10-07T01:31:13.573Z,99.99
2022-10-07T01:32:14.420Z,99.99
2022-10-07T01:33:13.879Z,99.99
2022-10-07T01:34:14.019Z,99.99
2022-10-07T01:35:14.146Z,99.99
2022-10-07T01:36:14.327Z,99.99
2022-10-07T01:37:14.468Z,99.99
2022-10-07T01:38:15.342Z,99.99
2022-10-07T01:39:14.754Z,99.99
2022-10-07T01:40:15.325Z,99.99
2022-10-07T01:41:15.037Z,99.99
2022-10-07T01:42:15.353Z,99.99
2022-10-07T01:43:15.363Z,99.99
2022-10-07T01:44:16.191Z,99.99
2022-10-07T01:45:15.545Z,99.99
2022-10-07T01:46:16.421Z,99.99
2022-10-07T01:47:16.497Z,99.99
2022-10-07T01:48:15.975Z,99.99
2022-10-07T01:49:16.096Z,99.99
2022-10-07T01:50:16.518Z,99.99
2022-10-07T01:51:16.365Z,99.99
2022-10-07T01:52:17.207Z,99.99
2022-10-07T01:53:16.624Z,99.99
2022-10-07T01:54:17.097Z,99.99
2022-10-07T01:55:16.910Z,99.99
2022-10-07T01:56:17.035Z,99.99
2022-10-07T01:57:17.159Z,99.99
2022-10-07T01:58:17.287Z,99.99
2022-10-07T01:59:17.397Z,99.99
2022-10-07T02:00:17.524Z,99.99
2022-10-07T02:01:17.660Z,99.99
2022-10-07T02:02:17.848Z,99.99
2022-10-07T02:03:18.045Z,99.99
2022-10-07T02:04:18.141Z,99.99
2022-10-07T02:05:18.874Z,99.99
2022-10-07T02:06:18.424Z,99.99
2022-10-07T02:07:18.556Z,99.99
2022-10-07T02:08:18.682Z,99.99
2022-10-07T02:09:18.822Z,99.99
2022-10-07T02:10:18.957Z,99.99
2022-10-07T02:11:19.092Z,99.99
2022-10-07T02:12:19.226Z,99.99
2022-10-07T02:13:19.382Z,99.99
2022-10-07T02:14:19.516Z,99.99
2022-10-07T02:15:19.631Z,99.99
2022-10-07T02:16:19.865Z,99.99
2022-10-07T02:17:19.864Z,99.99
2022-10-07T02:18:20.003Z,99.99
2022-10-07T02:19:20.163Z,99.99
2022-10-07T02:20:20.293Z,99.99
2022-10-07T02:21:20.425Z,99.99
2022-10-07T02:22:20.543Z,99.99
2022-10-07T02:23:20.691Z,99.99
2022-10-07T02:24:20.783Z,99.99
2022-10-07T02:25:20.912Z,99.99
2022-10-07T02:26:21.019Z,99.99
2022-10-07T02:27:21.141Z,99.99
2022-10-07T02:28:21.361Z,99.99
2022-10-07T02:29:21.382Z,99.99
2022-10-07T02:30:21.512Z,99.99
2022-10-07T02:31:21.771Z,99.99
2022-10-07T02:32:21.783Z,99.99
2022-10-07T02:33:21.901Z,99.99
2022-10-07T02:34:22.061Z,99.99
2022-10-07T02:35:22.180Z,99.99
2022-10-07T02:36:22.352Z,99.99
2022-10-07T02:37:22.491Z,99.99
2022-10-07T02:38:23.321Z,99.99
2022-10-07T02:39:22.770Z,99.99
2022-10-07T02:40:22.958Z,99.99
2022-10-07T02:41:23.084Z,99.99
2022-10-07T02:42:23.238Z,99.99
2022-10-07T02:43:23.350Z,99.99
2022-10-07T02:44:23.946Z,99.99
2022-10-07T02:45:26.762Z,99.99
2022-10-07T02:46:23.949Z,99.99
2022-10-07T02:47:23.923Z,99.99
2022-10-07T02:48:24.039Z,99.99
2022-10-07T02:49:24.145Z,99.99
2022-10-07T02:50:24.280Z,99.99
2022-10-07T02:51:24.412Z,99.99
2022-10-07T02:52:24.562Z,99.99
2022-10-07T02:53:24.680Z,99.99
2022-10-07T02:54:24.808Z,99.99
2022-10-07T02:55:24.928Z,99.99
2022-10-07T02:56:25.080Z,99.99
2022-10-07T02:57:25.200Z,99.99
2022-10-07T02:58:25.328Z,99.99
2022-10-07T02:59:25.448Z,99.99
2022-10-07T03:00:25.567Z,99.99
2022-10-07T03:01:25.833Z,99.99
2022-10-07T03:02:25.817Z,99.99
2022-10-07T03:03:26.019Z,99.99
2022-10-07T03:04:26.087Z,99.99
2022-10-07T03:05:26.239Z,99.99
2022-10-07T03:06:26.333Z,99.99
2022-10-07T03:07:26.469Z,99.99
2022-10-07T03:08:26.596Z,99.99
2022-10-07T03:09:26.716Z,99.99
2022-10-07T03:10:27.389Z,99.99
2022-10-07T03:11:26.998Z,99.99
2022-10-07T03:12:27.135Z,99.99
2022-10-07T03:13:27.277Z,99.99
2022-10-07T03:14:27.405Z,99.99
2022-10-07T03:15:27.520Z,99.99
2022-10-07T03:16:27.693Z,99.99
2022-10-07T03:17:28.278Z,99.99
2022-10-07T03:18:27.885Z,99.99
2022-10-07T03:19:28.005Z,99.99
2022-10-07T03:20:28.288Z,99.99
2022-10-07T03:21:28.247Z,99.99
2022-10-07T03:22:28.389Z,99.99
2022-10-07T03:23:28.535Z,99.99
2022-10-07T03:24:28.683Z,99.99
2022-10-07T03:25:28.838Z,99.99
2022-10-07T03:26:28.954Z,99.99
2022-10-07T03:27:29.082Z,99.99
2022-10-07T03:28:29.282Z,99.99
2022-10-07T03:29:29.364Z,99.99
2022-10-07T03:30:29.495Z,99.99
2022-10-07T03:31:29.761Z,99.99
2022-10-07T03:32:29.748Z,99.99
2022-10-07T03:33:29.864Z,99.99
2022-10-07T03:34:30.004Z,99.99
2022-10-07T03:35:30.153Z,99.99
2022-10-07T03:36:30.280Z,99.99
2022-10-07T03:37:30.404Z,99.99
2022-10-07T03:38:30.523Z,99.99
2022-10-07T03:39:30.660Z,99.99
2022-10-07T03:40:30.812Z,99.99
2022-10-07T03:41:30.924Z,99.99
2022-10-07T03:42:31.044Z,99.99
2022-10-07T03:43:31.210Z,99.99
2022-10-07T03:44:31.341Z,99.99
2022-10-07T03:45:31.493Z,99.99
2022-10-07T03:46:31.679Z,99.99
2022-10-07T03:47:31.712Z,99.99
2022-10-07T03:48:31.861Z,99.99
2022-10-07T03:49:31.993Z,99.99
2022-10-07T03:50:32.123Z,99.99
2022-10-07T03:51:32.232Z,99.99
2022-10-07T03:52:32.354Z,99.99
2022-10-07T03:53:32.490Z,99.99
2022-10-07T03:54:32.600Z,99.99
2022-10-07T03:55:32.768Z,99.99
2022-10-07T03:56:32.889Z,99.99
2022-10-07T03:57:33.031Z,99.99
2022-10-07T03:58:33.183Z,99.99
2022-10-07T03:59:33.308Z,99.99
2022-10-07T04:00:33.444Z,99.99
2022-10-07T04:01:34.045Z,99.99
2022-10-07T04:02:33.796Z,99.99
2022-10-07T04:03:34.049Z,99.99
2022-10-07T04:04:34.058Z,99.99
2022-10-07T04:05:34.279Z,99.99
2022-10-07T04:06:34.361Z,99.99
2022-10-07T04:07:35.337Z,99.99
2022-10-07T04:08:34.663Z,99.99
2022-10-07T04:09:35.081Z,99.99
2022-10-07T04:10:34.940Z,99.99
2022-10-07T04:11:35.798Z,99.99
2022-10-07T04:12:36.217Z,99.99
2022-10-07T04:13:36.131Z,99.99
2022-10-07T04:14:35.590Z,99.99
2022-10-07T04:15:36.406Z,99.99
2022-10-07T04:16:38.097Z,99.99
2022-10-07T04:17:36.008Z,99.99
2022-10-07T04:18:36.126Z,99.99
2022-10-07T04:19:36.278Z,99.99
2022-10-07T04:20:36.427Z,99.99
2022-10-07T04:21:36.630Z,99.99
2022-10-07T04:22:36.710Z,99.99
2022-10-07T04:23:37.610Z,99.99
2022-10-07T04:24:36.975Z,99.99
2022-10-07T04:25:37.166Z,99.99
2022-10-07T04:26:37.300Z,99.99
2022-10-07T04:27:58.137Z,99.99
2022-10-07T04:28:38.624Z,99.99
2022-10-07T04:29:39.254Z,99.99
2022-10-07T04:30:37.893Z,99.99
2022-10-07T04:31:38.092Z,99.99
2022-10-07T04:32:38.163Z,99.99
2022-10-07T04:33:38.283Z,99.99
2022-10-07T04:34:38.425Z,99.99
2022-10-07T04:35:38.525Z,99.99
2022-10-07T04:36:38.657Z,99.99
2022-10-07T04:37:38.788Z,99.99
2022-10-07T04:38:38.943Z,99.99
2022-10-07T04:39:59.670Z,99.99
2022-10-07T04:40:40.238Z,99.99
2022-10-07T04:41:39.344Z,99.99
2022-10-07T04:42:39.466Z,99.99
2022-10-07T04:43:39.618Z,99.99
2022-10-07T04:44:39.753Z,99.99
2022-10-07T04:45:39.925Z,99.99
2022-10-07T04:46:40.079Z,99.99
2022-10-07T04:47:40.094Z,99.99
2022-10-07T04:48:41.701Z,99.99
2022-10-07T04:49:40.392Z,99.99
2022-10-07T04:50:40.531Z,99.99
2022-10-07T04:51:40.694Z,99.99
2022-10-07T04:52:40.855Z,99.99
2022-10-07T04:53:40.982Z,99.99
2022-10-07T04:54:41.113Z,99.99
2022-10-07T04:55:41.237Z,99.99
2022-10-07T04:56:41.383Z,99.99
2022-10-07T04:57:41.517Z,99.99
2022-10-07T04:58:41.641Z,99.99
2022-10-07T04:59:42.983Z,99.99
2022-10-07T05:00:41.999Z,99.99
2022-10-07T05:01:42.112Z,99.99
2022-10-07T05:02:42.190Z,99.99
2022-10-07T05:03:42.339Z,99.99
2022-10-07T05:04:42.471Z,99.99
2022-10-07T05:05:42.612Z,99.99
2022-10-07T05:06:42.811Z,99.99
2022-10-07T05:07:43.339Z,99.99
2022-10-07T05:08:43.072Z,99.99
2022-10-07T05:09:43.214Z,99.99
2022-10-07T05:10:43.367Z,99.99
2022-10-07T05:11:43.491Z,99.99
2022-10-07T05:12:43.626Z,99.99
2022-10-07T05:13:43.732Z,99.99
2022-10-07T05:14:43.867Z,99.99
2022-10-07T05:15:44.016Z,99.99
2022-10-07T05:16:44.197Z,99.99
2022-10-07T05:17:44.487Z,99.99
2022-10-07T05:18:44.360Z,99.99
2022-10-07T05:19:44.500Z,99.99
2022-10-07T05:20:44.689Z,99.99
2022-10-07T05:21:44.809Z,99.99
2022-10-07T05:22:44.939Z,99.99
2022-10-07T05:23:45.060Z,99.99
2022-10-07T05:24:45.222Z,99.99
2022-10-07T05:25:45.341Z,99.99
2022-10-07T05:26:45.503Z,99.99
2022-10-07T05:27:45.852Z,99.99
2022-10-07T05:28:45.788Z,99.99
2022-10-07T05:29:45.932Z,99.99
2022-10-07T05:30:46.100Z,99.99
2022-10-07T05:31:46.292Z,99.99
2022-10-07T05:32:46.369Z,99.99
2022-10-07T05:33:46.539Z,99.99
2022-10-07T05:34:46.698Z,99.99
2022-10-07T05:35:46.823Z,99.99
2022-10-07T05:36:46.917Z,99.99
2022-10-07T05:37:50.892Z,99.99
2022-10-07T05:38:47.219Z,99.99
2022-10-07T05:39:47.367Z,99.99
2022-10-07T05:40:48.969Z,99.99
2022-10-07T05:41:47.625Z,99.99
2022-10-07T05:42:47.767Z,99.99
2022-10-07T05:43:47.927Z,99.99
2022-10-07T05:44:48.078Z,99.99
2022-10-07T05:45:48.234Z,99.99
2022-10-07T05:46:48.388Z,99.99
2022-10-07T05:47:48.726Z,99.99
2022-10-07T05:48:48.688Z,99.99
2022-10-07T05:49:48.851Z,99.99
2022-10-07T05:50:49.010Z,99.99
2022-10-07T05:51:49.167Z,99.99
2022-10-07T05:52:49.267Z,99.99
2022-10-07T05:53:49.395Z,99.99
2022-10-07T05:54:49.527Z,99.99
2022-10-07T05:55:49.708Z,99.99
2022-10-07T05:56:49.835Z,99.99
2022-10-07T05:57:49.963Z,99.99
2022-10-07T05:58:50.099Z,99.99
2022-10-07T05:59:50.252Z,99.99
2022-10-07T06:00:50.404Z,99.99
2022-10-07T06:01:50.663Z,99.99
2022-10-07T06:02:50.798Z,99.99
2022-10-07T06:03:50.893Z,99.99
2022-10-07T06:04:51.043Z,99.99
2022-10-07T06:05:51.216Z,99.99
2022-10-07T06:06:51.333Z,99.99
2022-10-07T06:07:51.487Z,99.99
2022-10-07T06:08:51.624Z,99.99
2022-10-07T06:09:51.771Z,99.99
2022-10-07T06:10:51.885Z,99.99
2022-10-07T06:11:52.182Z,99.99
2022-10-07T06:12:52.144Z,99.99
2022-10-07T06:13:52.285Z,99.99
2022-10-07T06:14:52.442Z,99.99
2022-10-07T06:15:52.597Z,99.99
2022-10-07T06:16:52.784Z,99.99
2022-10-07T06:17:52.865Z,99.99
2022-10-07T06:18:52.966Z,99.99
2022-10-07T06:19:53.149Z,99.99
2022-10-07T06:20:53.293Z,99.99
2022-10-07T06:21:53.473Z,99.99
2022-10-07T06:22:53.843Z,99.99
2022-10-07T06:23:53.791Z,99.99
2022-10-07T06:24:53.894Z,99.99
2022-10-07T06:25:54.462Z,99.99
2022-10-07T06:26:54.240Z,99.99
2022-10-07T06:27:54.939Z,99.99
2022-10-07T06:28:54.674Z,99.99
2022-10-07T06:29:54.617Z,99.99
2022-10-07T06:30:54.869Z,99.99
2022-10-07T06:31:54.962Z,99.99
2022-10-07T06:32:55.651Z,99.99
2022-10-07T06:33:55.286Z,99.99
2022-10-07T06:34:56.133Z,99.99
2022-10-07T06:35:55.542Z,99.99
2022-10-07T06:36:55.702Z,99.99
2022-10-07T06:37:55.851Z,99.99
2022-10-07T06:38:55.949Z,99.99
2022-10-07T06:39:59.466Z,99.99
2022-10-07T06:40:56.239Z,99.99
2022-10-07T06:41:56.391Z,99.99
2022-10-07T06:42:56.458Z,99.99
2022-10-07T06:43:56.610Z,99.99
2022-10-07T06:44:56.700Z,99.99
2022-10-07T06:45:56.889Z,99.99
2022-10-07T06:46:57.011Z,99.99
2022-10-07T06:47:57.140Z,99.99
2022-10-07T06:48:57.282Z,99.99
2022-10-07T06:49:57.421Z,99.99
2022-10-07T06:50:57.519Z,99.99
2022-10-07T06:51:57.670Z,99.99
2022-10-07T06:52:57.828Z,99.99
2022-10-07T06:53:57.945Z,99.99
2022-10-07T06:54:58.096Z,99.99
2022-10-07T06:55:58.262Z,99.99
2022-10-07T06:56:58.446Z,99.99
2022-10-07T06:57:58.955Z,99.99
2022-10-07T06:59:00.159Z,99.99
2022-10-07T06:59:58.829Z,99.99
2022-10-07T07:00:59.054Z,99.99
2022-10-07T07:01:59.106Z,99.99
2022-10-07T07:02:59.197Z,99.99
2022-10-07T07:03:59.349Z,99.99
2022-10-07T07:04:59.570Z,99.99
2022-10-07T07:05:59.616Z,99.99
2022-10-07T07:06:59.767Z,99.99
2022-10-07T07:07:59.926Z,99.99
2022-10-07T07:09:00.076Z,99.99
2022-10-07T07:10:00.293Z,99.99
2022-10-07T07:11:00.387Z,99.99
2022-10-07T07:12:00.566Z,99.99
2022-10-07T07:14:00.766Z,99.99
2022-10-07T07:15:00.915Z,99.99
2022-10-07T07:16:01.032Z,99.99
2022-10-07T07:17:01.191Z,99.99
2022-10-07T07:18:01.257Z,99.99
2022-10-07T07:19:01.427Z,99.99
2022-10-07T07:20:01.596Z,99.99
2022-10-07T07:21:01.737Z,99.99
2022-10-07T07:22:01.891Z,99.99
2022-10-07T07:23:02.028Z,99.99
2022-10-07T07:24:02.115Z,99.55
2022-10-07T07:25:02.246Z,99.25
2022-10-07T07:26:02.347Z,99.35
2022-10-07T07:27:02.455Z,99.04
2022-10-07T07:28:02.683Z,98.90
2022-10-07T07:29:02.735Z,98.79
2022-10-07T07:30:02.897Z,98.99
2022-10-07T07:31:03.031Z,98.99
2022-10-07T07:32:03.136Z,98.58
2022-10-07T07:33:03.254Z,97.97
2022-10-07T07:34:03.368Z,97.52
2022-10-07T07:35:05.003Z,97.31
2022-10-07T07:36:03.615Z,97.00
2022-10-07T07:37:03.719Z,96.55
2022-10-07T07:38:03.864Z,96.45
2022-10-07T07:39:04.715Z,96.04
2022-10-07T07:40:04.109Z,95.84
2022-10-07T07:41:04.233Z,95.48
2022-10-07T07:42:04.338Z,94.97
2022-10-07T07:43:04.432Z,95.79
2022-10-07T07:44:04.603Z,95.38
2022-10-07T07:45:04.694Z,94.73
2022-10-07T07:46:04.891Z,94.93
2022-10-07T07:47:04.913Z,95.03
2022-10-07T07:48:05.086Z,94.21
2022-10-07T07:49:05.206Z,94.48
2022-10-07T07:50:05.308Z,94.58
2022-10-07T07:51:05.412Z,93.66
2022-10-07T07:52:05.593Z,93.55
2022-10-07T07:53:05.677Z,93.86
2022-10-07T07:54:05.825Z,92.84
2022-10-07T07:55:05.900Z,92.74
2022-10-07T07:56:06.061Z,93.21
2022-10-07T07:57:06.164Z,93.00
2022-10-07T07:58:09.642Z,92.29
2022-10-07T07:59:07.421Z,92.49
2022-10-07T08:00:06.537Z,92.65
2022-10-07T08:01:08.124Z,92.04
2022-10-07T08:02:06.864Z,91.63
2022-10-07T08:03:06.902Z,91.83
2022-10-07T08:04:07.048Z,91.63
2022-10-07T08:05:07.216Z,91.83
2022-10-07T08:06:07.363Z,91.59
2022-10-07T08:07:07.462Z,91.69
2022-10-07T08:08:07.618Z,91.28
2022-10-07T08:09:07.734Z,91.49
2022-10-07T08:10:07.855Z,90.94
2022-10-07T08:11:07.942Z,90.12
2022-10-07T08:12:08.098Z,89.20
2022-10-07T08:13:08.213Z,89.61
2022-10-07T08:14:08.325Z,90.22
2022-10-07T08:15:09.144Z,89.00
2022-10-07T08:16:08.577Z,89.47
2022-10-07T08:17:08.651Z,89.67
2022-10-07T08:18:08.821Z,88.55
2022-10-07T08:19:08.898Z,89.12
2022-10-07T08:20:09.067Z,87.69
2022-10-07T08:21:09.210Z,87.08
2022-10-07T08:22:09.293Z,87.18
2022-10-07T08:23:09.390Z,87.59
2022-10-07T08:24:09.560Z,87.08
2022-10-07T08:25:09.654Z,87.45
2022-10-07T08:26:09.762Z,87.65
2022-10-07T08:27:09.859Z,87.24
2022-10-07T08:28:10.058Z,87.85
2022-10-07T08:29:10.120Z,86.90
2022-10-07T08:30:11.370Z,87.00
2022-10-07T08:31:10.469Z,86.39
2022-10-07T08:32:10.543Z,86.39
2022-10-07T08:33:10.642Z,86.65
2022-10-07T08:34:10.789Z,86.65
2022-10-07T08:35:10.927Z,85.03
2022-10-07T08:36:11.017Z,85.43
2022-10-07T08:37:11.109Z,85.33
2022-10-07T08:38:14.417Z,85.23
2022-10-07T08:39:11.364Z,85.49
2022-10-07T08:40:11.676Z,84.17
2022-10-07T08:41:11.620Z,84.74
2022-10-07T08:42:12.249Z,83.93
2022-10-07T08:43:11.890Z,83.89
2022-10-07T08:44:16.590Z,83.12
2022-10-07T08:45:12.109Z,83.48
2022-10-07T08:46:12.366Z,83.99
2022-10-07T08:47:12.371Z,83.69
2022-10-07T08:48:13.254Z,82.87
2022-10-07T08:49:12.641Z,82.33
2022-10-07T08:50:18.122Z,82.53
2022-10-07T08:51:14.661Z,81.92
2022-10-07T08:52:13.090Z,81.01
2022-10-07T08:53:13.217Z,81.41
2022-10-07T08:54:13.301Z,81.68
2022-10-07T08:55:13.411Z,80.49
2022-10-07T08:56:13.568Z,78.89
2022-10-07T08:57:13.681Z,77.75
2022-10-07T08:58:13.825Z,76.50
2022-10-07T08:59:13.919Z,75.75
2022-10-07T09:00:14.051Z,75.31
2022-10-07T09:01:14.159Z,74.57
2022-10-07T09:02:14.343Z,73.11
2022-10-07T09:03:14.441Z,72.75
2022-10-07T09:04:15.319Z,73.39
2022-10-07T09:05:14.658Z,73.46
2022-10-07T09:06:15.349Z,73.11
2022-10-07T09:07:14.888Z,72.31
2022-10-07T09:08:15.719Z,73.11
2022-10-07T09:09:15.119Z,72.31
2022-10-07T09:10:15.272Z,72.68
2022-10-07T09:11:15.360Z,72.21
2022-10-07T09:12:16.206Z,71.87
2022-10-07T09:13:15.611Z,71.47
2022-10-07T09:14:15.720Z,71.77
2022-10-07T09:15:15.821Z,71.17
2022-10-07T09:16:15.989Z,71.00
2022-10-07T09:17:16.068Z,70.02
2022-10-07T09:18:16.893Z,67.91
2022-10-07T09:19:16.299Z,67.97
2022-10-07T09:20:16.515Z,68.04
2022-10-07T09:21:16.613Z,67.47
2022-10-07T09:22:16.808Z,68.31
2022-10-07T09:23:16.868Z,68.18
2022-10-07T09:24:18.327Z,68.01
2022-10-07T09:25:17.170Z,68.18
2022-10-07T09:26:17.240Z,67.88
2022-10-07T09:27:17.347Z,67.47
2022-10-07T09:28:17.538Z,67.60
2022-10-07T09:29:17.590Z,67.07
2022-10-07T09:30:17.773Z,67.50
2022-10-07T09:31:17.986Z,67.60
2022-10-07T09:32:17.980Z,67.50
2022-10-07T09:33:18.091Z,67.14
2022-10-07T09:34:19.641Z,66.20
2022-10-07T09:35:18.308Z,66.27
2022-10-07T09:36:18.441Z,66.87
2022-10-07T09:37:18.562Z,67.30
2022-10-07T09:38:18.663Z,67.10
2022-10-07T09:39:19.480Z,67.27
2022-10-07T09:40:19.141Z,66.90
2022-10-07T09:41:19.001Z,66.67
2022-10-07T09:42:19.109Z,67.40
2022-10-07T09:43:19.234Z,67.24
2022-10-07T09:44:19.351Z,65.79
2022-10-07T09:45:19.457Z,66.87
2022-10-07T09:46:19.660Z,65.89
2022-10-07T09:47:19.743Z,66.60
2022-10-07T09:48:19.865Z,66.60
2022-10-07T09:49:24.223Z,66.80
2022-10-07T09:50:20.182Z,65.89
2022-10-07T09:51:20.311Z,66.27
2022-10-07T09:52:20.355Z,65.46
2022-10-07T09:53:20.450Z,66.60
2022-10-07T09:54:20.591Z,66.30
2022-10-07T09:55:20.731Z,65.89
2022-10-07T09:56:20.884Z,66.39
2022-10-07T09:57:20.982Z,65.70
2022-10-07T09:58:21.130Z,64.43
2022-10-07T09:59:21.274Z,63.42
2022-10-07T10:00:21.420Z,62.86
2022-10-07T10:01:21.571Z,62.46
2022-10-07T10:02:21.780Z,62.26
2022-10-07T10:03:21.887Z,62.23
2022-10-07T10:04:21.965Z,61.13
2022-10-07T10:05:23.643Z,61.63
2022-10-07T10:06:22.197Z,61.86
2022-10-07T10:07:22.304Z,61.69
2022-10-07T10:08:22.461Z,61.49
2022-10-07T10:09:23.304Z,62.02
2022-10-07T10:10:22.742Z,62.91
2022-10-07T10:11:23.553Z,63.82
2022-10-07T10:12:22.962Z,62.29
2022-10-07T10:13:23.062Z,60.39
2022-10-07T10:14:23.165Z,60.10
2022-10-07T10:15:23.282Z,60.12
2022-10-07T10:16:23.526Z,60.62
2022-10-07T10:17:23.501Z,60.39
2022-10-07T10:18:23.606Z,59.77
2022-10-07T10:19:23.745Z,60.05
2022-10-07T10:20:23.892Z,60.15
2022-10-07T10:21:24.055Z,59.75
2022-10-07T10:22:24.163Z,59.52
2022-10-07T10:23:24.282Z,60.22
2022-10-07T10:24:24.391Z,58.92
2022-10-07T10:25:24.534Z,59.29
2022-10-07T10:26:27.196Z,59.72
2022-10-07T10:27:24.762Z,60.15
2022-10-07T10:28:24.894Z,60.32
2022-10-07T10:29:25.045Z,59.32
2022-10-07T10:30:25.135Z,59.75
2022-10-07T10:31:25.335Z,60.05
2022-10-07T10:32:25.370Z,59.95
2022-10-07T10:33:25.463Z,60.15
2022-10-07T10:34:25.576Z,60.22
2022-10-07T10:35:25.721Z,59.12
2022-10-07T10:36:25.829Z,58.49
2022-10-07T10:37:25.996Z,58.39
2022-10-07T10:38:26.075Z,57.76
2022-10-07T10:39:26.216Z,57.43
2022-10-07T10:40:26.454Z,56.60
2022-10-07T10:41:26.509Z,56.52
2022-10-07T10:42:26.624Z,54.94
2022-10-07T10:43:26.723Z,55.65
2022-10-07T10:44:26.875Z,55.09
2022-10-07T10:45:27.023Z,53.99
2022-10-07T10:46:27.155Z,54.39
2022-10-07T10:47:27.336Z,54.52
2022-10-07T10:48:27.481Z,55.32
2022-10-07T10:49:27.709Z,55.02
2022-10-07T10:50:27.760Z,55.55
2022-10-07T10:51:27.910Z,55.74
2022-10-07T10:52:27.877Z,55.27
2022-10-07T10:53:28.026Z,56.15
2022-10-07T10:54:28.134Z,55.02
2022-10-07T10:55:28.290Z,55.77
2022-10-07T10:56:28.389Z,56.27
2022-10-07T10:57:28.510Z,56.24
2022-10-07T10:58:28.589Z,55.32
2022-10-07T10:59:28.770Z,54.60
2022-10-07T11:00:28.877Z,54.69
2022-10-07T11:01:29.021Z,54.37
2022-10-07T11:02:29.593Z,53.92
2022-10-07T11:03:29.239Z,52.79
2022-10-07T11:04:29.438Z,52.99
2022-10-07T11:05:29.496Z,53.17
2022-10-07T11:06:29.617Z,52.59
2022-10-07T11:07:30.022Z,52.44
2022-10-07T11:08:32.401Z,53.77
2022-10-07T11:09:30.751Z,54.79
2022-10-07T11:10:30.087Z,55.05
2022-10-07T11:11:30.239Z,56.00
2022-10-07T11:12:30.361Z,56.57
2022-10-07T11:13:31.926Z,55.44
2022-10-07T11:14:30.598Z,54.90
2022-10-07T11:15:30.711Z,53.84
2022-10-07T11:16:30.819Z,54.72
2022-10-07T11:17:30.921Z,54.22
2022-10-07T11:18:31.044Z,55.05
2022-10-07T11:19:31.166Z,54.67
2022-10-07T11:20:31.276Z,53.67
2022-10-07T11:21:31.432Z,52.74
2022-10-07T11:22:31.544Z,52.84
2022-10-07T11:23:31.702Z,53.82
2022-10-07T11:24:31.831Z,54.67
2022-10-07T11:25:31.941Z,56.23
2022-10-07T11:26:34.724Z,56.17
2022-10-07T11:27:32.166Z,54.74
2022-10-07T11:28:32.290Z,53.97
2022-10-07T11:29:32.423Z,52.09
2022-10-07T11:30:32.501Z,51.27
2022-10-07T11:31:33.334Z,52.87
2022-10-07T11:32:32.792Z,50.92
2022-10-07T11:33:32.961Z,51.17
2022-10-07T11:34:33.052Z,51.82
2022-10-07T11:35:33.192Z,51.57
2022-10-07T11:36:33.341Z,50.57
2022-10-07T11:37:33.474Z,51.52
2022-10-07T11:38:33.602Z,52.84
2022-10-07T11:39:33.705Z,53.04
2022-10-07T11:40:34.555Z,53.02
2022-10-07T11:41:34.690Z,51.65
2022-10-07T11:42:34.105Z,51.17
2022-10-07T11:43:34.913Z,51.47
2022-10-07T11:44:34.363Z,50.23
2022-10-07T11:45:35.194Z,49.53
2022-10-07T11:46:34.625Z,50.79
2022-10-07T11:47:34.721Z,52.97
2022-10-07T11:48:34.823Z,52.67
2022-10-07T11:49:34.964Z,52.72
2022-10-07T11:50:35.096Z,52.00
2022-10-07T11:51:35.916Z,51.72
2022-10-07T11:52:38.311Z,53.30
2022-10-07T11:53:36.162Z,53.30
2022-10-07T11:54:35.577Z,52.89
2022-10-07T11:55:35.675Z,52.02
2022-10-07T11:56:35.815Z,49.85
2022-10-07T11:57:36.634Z,49.40
2022-10-07T11:58:36.038Z,48.46
2022-10-07T11:59:36.135Z,47.62
2022-10-07T12:00:36.270Z,47.34
2022-10-07T12:01:37.112Z,47.22
2022-10-07T12:02:36.596Z,47.62
2022-10-07T12:03:36.957Z,46.56
2022-10-07T12:04:36.735Z,46.68
2022-10-07T12:05:36.894Z,46.84
2022-10-07T12:06:37.005Z,47.56
2022-10-07T12:07:37.195Z,48.28
2022-10-07T12:08:37.264Z,48.58
2022-10-07T12:09:37.446Z,48.50
2022-10-07T12:10:37.550Z,47.94
2022-10-07T12:11:37.657Z,48.07
2022-10-07T12:12:37.784Z,49.68
2022-10-07T12:13:37.886Z,50.30
2022-10-07T12:14:37.995Z,50.40
2022-10-07T12:15:38.166Z,50.84
2022-10-07T12:16:38.318Z,50.42
2022-10-07T12:17:38.872Z,50.57
2022-10-07T12:18:38.516Z,50.49
2022-10-07T12:19:38.667Z,49.90
2022-10-07T12:20:40.251Z,49.70
2022-10-07T12:21:38.920Z,49.90
2022-10-07T12:22:39.007Z,50.27
2022-10-07T12:23:40.100Z,50.37
2022-10-07T12:24:39.255Z,49.75
2022-10-07T12:25:39.408Z,50.20
2022-10-07T12:26:39.528Z,49.55
2022-10-07T12:27:39.639Z,49.55
2022-10-07T12:28:39.781Z,50.07
2022-10-07T12:29:39.888Z,49.63
2022-10-07T12:30:40.024Z,48.14
2022-10-07T12:31:40.158Z,47.30
2022-10-07T12:32:40.231Z,47.05
2022-10-07T12:33:40.387Z,47.66
2022-10-07T12:34:40.487Z,47.25
2022-10-07T12:35:40.610Z,47.10
2022-10-07T12:36:40.718Z,46.95
2022-10-07T12:37:40.868Z,48.11
2022-10-07T12:38:41.689Z,48.79
2022-10-07T12:39:41.098Z,48.36
2022-10-07T12:40:41.237Z,46.80
2022-10-07T12:41:42.778Z,47.62
2022-10-07T12:42:41.441Z,47.20
2022-10-07T12:43:41.564Z,47.20
2022-10-07T12:44:41.670Z,47.47
2022-10-07T12:45:41.871Z,48.32
2022-10-07T12:46:42.561Z,46.68
2022-10-07T12:47:42.080Z,46.04
2022-10-07T12:48:42.183Z,44.98
2022-10-07T12:49:42.321Z,44.45
2022-10-07T12:50:42.470Z,43.04
2022-10-07T12:51:42.704Z,44.97
2022-10-07T12:52:42.912Z,47.66
2022-10-07T12:53:42.891Z,48.88
2022-10-07T12:54:43.010Z,48.88